This is the latest recevied weather packets stored in our database for station/object VE7OTD. If no packets are shown the sender has not sent any weather packets the latest 10 day(s).
| Time | Temp. | Humidity | Pressure | Rain* | Wind** | Luminosity | Snow |
|---|---|---|---|---|---|---|---|
| 1777639707 | 8.89° C | 86% | 1016.3 hPa | 0 mm | - | - | - |
| 1777637905 | 8.33° C | 90% | 1016.3 hPa | 0 mm | - | - | - |
| 1777636089 | 7.78° C | 90% | 1016.1 hPa | 0 mm | - | - | - |
| 1777634275 | 8.33° C | 87% | 1016 hPa | 0 mm | - | - | - |
| 1777632459 | 8.89° C | 86% | 1015.9 hPa | 0 mm | - | - | - |
| 1777630645 | 9.44° C | 83% | 1015.9 hPa | 0 mm | - | - | - |
| 1777628830 | 10° C | 82% | 1016.1 hPa | 0 mm | - | - | - |
| 1777627015 | 11.11° C | 77% | 1016.2 hPa | 0 mm | - | - | - |
| 1777625215 | 11.67° C | 74% | 1016.1 hPa | 0 mm | - | - | - |
| 1777623384 | 13.33° C | 69% | 1016 hPa | 0 mm | - | - | - |
| 1777621551 | 13.33° C | 67% | 1015.9 hPa | 0 mm | - | - | - |
| 1777619737 | 12.78° C | 72% | 1015.8 hPa | 0 mm | - | - | - |
| 1777617922 | 12.78° C | 72% | 1015.7 hPa | 0 mm | - | - | - |
| 1777616106 | 13.33° C | 74% | 1015.6 hPa | 0 mm | - | - | - |
| 1777614293 | 13.33° C | 78% | 1015.6 hPa | 0 mm | - | - | - |
| 1777612476 | 12.78° C | 78% | 1015.6 hPa | 0 mm | - | - | - |
| 1777610670 | 12.78° C | 80% | 1015.4 hPa | - | - | - | - |
| 1777609202 | 13.33° C | 78% | 1015.3 hPa | 0 mm | - | - | - |
| 1777607388 | 14.44° C | 60% | 1015.3 hPa | 0 mm | - | - | - |
| 1777605572 | 16.11° C | 56% | 1015.5 hPa | 0 mm | - | - | - |
| 1777603732 | 17.22° C | 58% | 1015.7 hPa | 0 mm | - | - | - |
| 1777601917 | 18.33° C | 59% | 1015.7 hPa | 0 mm | - | - | - |
| 1777600102 | 20° C | 54% | 1016 hPa | 0 mm | - | - | - |
| 1777598287 | 21.11° C | 41% | 1016.2 hPa | 0 mm | - | - | - |
| 1777596473 | 21.67° C | 43% | 1016.6 hPa | 0 mm | - | - | - |
* Rain latest hour (hover to see other rain measurements)
** Current wind speed in m/s (hover to see current wind gust speed)